Winnetoon, Nebraska
Current Conditions -  °F | °C
As of 9:15 AM on Saturday 20 Dec 2014 (Local Time) from KYKN Reporting Station
Overcast Overcast  
Wind Chill: 23°   Ceiling: 800
Heat Index: 32°   Visibility: 5mi
Dew Point: 28°   Wind: 13mph
Humidity: 87%   Direction: 150°SSE
Pressure: 30.08"   Gusts: NA
Location:  42.51°N, 97.96°W
Report Text: KYKN 201515Z AUTO 15011KT 5SM OVC008 00/M02 A3008 RMK AO1
Loading
Personal Weather Stations






























Interactive Weather Map New forecast layout! Learn more

10-Day Weather Forecast

Advertisements
Track Severe Weather on mobile